sensor_id;sensor_type;location;lat;lon;timestamp;temperature;humidity
47765;DHT22;33529;49.242;8.670;2022-09-29T00:01:46;7.70;99.90
47765;DHT22;33529;49.242;8.670;2022-09-29T00:04:13;7.70;99.90
47765;DHT22;33529;49.242;8.670;2022-09-29T00:06:40;7.70;99.90
47765;DHT22;33529;49.242;8.670;2022-09-29T00:09:06;7.70;99.90
47765;DHT22;33529;49.242;8.670;2022-09-29T00:11:33;7.70;99.90
47765;DHT22;33529;49.242;8.670;2022-09-29T00:14:00;7.60;99.90
47765;DHT22;33529;49.242;8.670;2022-09-29T00:16:27;7.60;99.90
47765;DHT22;33529;49.242;8.670;2022-09-29T00:18:55;7.60;99.90
47765;DHT22;33529;49.242;8.670;2022-09-29T00:21:23;7.50;99.90
47765;DHT22;33529;49.242;8.670;2022-09-29T00:23:53;7.50;99.90
47765;DHT22;33529;49.242;8.670;2022-09-29T00:26:22;7.40;99.90
47765;DHT22;33529;49.242;8.670;2022-09-29T00:28:52;7.40;99.90
47765;DHT22;33529;49.242;8.670;2022-09-29T00:31:19;7.30;99.90
47765;DHT22;33529;49.242;8.670;2022-09-29T00:33:47;7.20;99.90
47765;DHT22;33529;49.242;8.670;2022-09-29T00:36:16;7.20;99.90
47765;DHT22;33529;49.242;8.670;2022-09-29T00:38:44;7.30;99.90
47765;DHT22;33529;49.242;8.670;2022-09-29T00:41:17;7.30;99.90
47765;DHT22;33529;49.242;8.670;2022-09-29T00:46:18;7.40;99.90
47765;DHT22;33529;49.242;8.670;2022-09-29T00:48:46;7.40;99.90
47765;DHT22;33529;49.242;8.670;2022-09-29T00:51:14;7.40;99.90
47765;DHT22;33529;49.242;8.670;2022-09-29T00:53:43;7.30;99.90
47765;DHT22;33529;49.242;8.670;2022-09-29T00:56:12;7.30;99.90
47765;DHT22;33529;49.242;8.670;2022-09-29T00:58:44;7.20;99.90
47765;DHT22;33529;49.242;8.670;2022-09-29T01:01:16;7.10;99.90
47765;DHT22;33529;49.242;8.670;2022-09-29T01:03:45;7.10;99.90
47765;DHT22;33529;49.242;8.670;2022-09-29T01:06:18;7.20;99.90
47765;DHT22;33529;49.242;8.670;2022-09-29T01:08:52;7.10;99.90
47765;DHT22;33529;49.242;8.670;2022-09-29T01:11:23;7.10;99.90
47765;DHT22;33529;49.242;8.670;2022-09-29T01:13:51;7.10;99.90
47765;DHT22;33529;49.242;8.670;2022-09-29T01:16:18;7.10;99.90
47765;DHT22;33529;49.242;8.670;2022-09-29T01:18:45;7.10;99.90
47765;DHT22;33529;49.242;8.670;2022-09-29T01:32:41;7.00;99.90
47765;DHT22;33529;49.242;8.670;2022-09-29T01:38:26;7.00;99.90
47765;DHT22;33529;49.242;8.670;2022-09-29T01:44:25;7.10;99.90
47765;DHT22;33529;49.242;8.670;2022-09-29T01:47:07;7.20;99.90
47765;DHT22;33529;49.242;8.670;2022-09-29T01:49:39;7.20;99.90
47765;DHT22;33529;49.242;8.670;2022-09-29T01:52:16;7.20;99.90
47765;DHT22;33529;49.242;8.670;2022-09-29T01:55:02;7.30;99.90
47765;DHT22;33529;49.242;8.670;2022-09-29T01:57:56;7.40;99.90
47765;DHT22;33529;49.242;8.670;2022-09-29T02:00:24;7.50;99.90
47765;DHT22;33529;49.242;8.670;2022-09-29T02:03:01;7.40;99.90
47765;DHT22;33529;49.242;8.670;2022-09-29T02:05:43;7.40;99.90
47765;DHT22;33529;49.242;8.670;2022-09-29T02:11:00;7.40;99.90
47765;DHT22;33529;49.242;8.670;2022-09-29T02:13:31;7.40;99.90
47765;DHT22;33529;49.242;8.670;2022-09-29T02:16:01;7.40;99.90
47765;DHT22;33529;49.242;8.670;2022-09-29T02:18:36;7.50;99.90
47765;DHT22;33529;49.242;8.670;2022-09-29T02:21:07;7.50;99.90
47765;DHT22;33529;49.242;8.670;2022-09-29T02:23:34;7.50;99.90
47765;DHT22;33529;49.242;8.670;2022-09-29T02:26:02;7.50;99.90
47765;DHT22;33529;49.242;8.670;2022-09-29T02:28:29;7.50;99.90
47765;DHT22;33529;49.242;8.670;2022-09-29T02:30:56;7.60;99.90
47765;DHT22;33529;49.242;8.670;2022-09-29T02:33:25;7.60;99.90
47765;DHT22;33529;49.242;8.670;2022-09-29T02:35:58;7.50;99.90
47765;DHT22;33529;49.242;8.670;2022-09-29T02:38:39;7.60;99.90
47765;DHT22;33529;49.242;8.670;2022-09-29T02:44:36;7.60;99.90
47765;DHT22;33529;49.242;8.670;2022-09-29T02:52:56;7.80;99.90
47765;DHT22;33529;49.242;8.670;2022-09-29T02:55:48;7.80;99.90
47765;DHT22;33529;49.242;8.670;2022-09-29T02:58:31;7.70;99.90
47765;DHT22;33529;49.242;8.670;2022-09-29T03:01:00;7.70;99.90
47765;DHT22;33529;49.242;8.670;2022-09-29T03:03:28;7.70;99.90
47765;DHT22;33529;49.242;8.670;2022-09-29T03:05:55;7.70;99.90
47765;DHT22;33529;49.242;8.670;2022-09-29T03:08:22;7.60;99.90
47765;DHT22;33529;49.242;8.670;2022-09-29T03:10:48;7.60;99.90
47765;DHT22;33529;49.242;8.670;2022-09-29T03:13:15;7.60;99.90
47765;DHT22;33529;49.242;8.670;2022-09-29T03:15:42;7.70;99.90
47765;DHT22;33529;49.242;8.670;2022-09-29T03:18:09;7.70;99.90
47765;DHT22;33529;49.242;8.670;2022-09-29T03:20:36;7.70;99.90
47765;DHT22;33529;49.242;8.670;2022-09-29T03:23:03;7.60;99.90
47765;DHT22;33529;49.242;8.670;2022-09-29T03:25:31;7.40;99.90
47765;DHT22;33529;49.242;8.670;2022-09-29T03:27:57;7.40;99.90
47765;DHT22;33529;49.242;8.670;2022-09-29T03:30:24;7.40;99.90
47765;DHT22;33529;49.242;8.670;2022-09-29T03:32:51;7.40;99.90
47765;DHT22;33529;49.242;8.670;2022-09-29T03:35:18;7.40;99.90
47765;DHT22;33529;49.242;8.670;2022-09-29T03:37:45;7.40;99.90
47765;DHT22;33529;49.242;8.670;2022-09-29T03:40:12;7.50;99.90
47765;DHT22;33529;49.242;8.670;2022-09-29T03:42:39;7.50;99.90
47765;DHT22;33529;49.242;8.670;2022-09-29T03:45:06;7.40;99.90
47765;DHT22;33529;49.242;8.670;2022-09-29T03:47:33;7.40;99.90
47765;DHT22;33529;49.242;8.670;2022-09-29T03:50:00;7.40;99.90
47765;DHT22;33529;49.242;8.670;2022-09-29T03:52:27;7.40;99.90
47765;DHT22;33529;49.242;8.670;2022-09-29T03:54:54;7.40;99.90
47765;DHT22;33529;49.242;8.670;2022-09-29T03:57:23;7.40;99.90
47765;DHT22;33529;49.242;8.670;2022-09-29T03:59:50;7.40;99.90
47765;DHT22;33529;49.242;8.670;2022-09-29T04:02:17;7.40;99.90
47765;DHT22;33529;49.242;8.670;2022-09-29T04:04:45;7.40;99.90
47765;DHT22;33529;49.242;8.670;2022-09-29T04:07:14;7.30;99.90
47765;DHT22;33529;49.242;8.670;2022-09-29T04:09:41;7.20;99.90
47765;DHT22;33529;49.242;8.670;2022-09-29T04:12:08;7.10;99.90
47765;DHT22;33529;49.242;8.670;2022-09-29T04:14:35;7.10;99.90
47765;DHT22;33529;49.242;8.670;2022-09-29T04:17:02;7.10;99.90
47765;DHT22;33529;49.242;8.670;2022-09-29T04:19:28;7.10;99.90
47765;DHT22;33529;49.242;8.670;2022-09-29T04:21:55;7.10;99.90
47765;DHT22;33529;49.242;8.670;2022-09-29T04:24:22;7.00;99.90
47765;DHT22;33529;49.242;8.670;2022-09-29T04:26:52;6.90;99.90
47765;DHT22;33529;49.242;8.670;2022-09-29T04:29:19;6.90;99.90
47765;DHT22;33529;49.242;8.670;2022-09-29T04:31:46;6.90;99.90
47765;DHT22;33529;49.242;8.670;2022-09-29T04:34:15;6.80;99.90
47765;DHT22;33529;49.242;8.670;2022-09-29T04:36:44;6.80;99.90
47765;DHT22;33529;49.242;8.670;2022-09-29T04:39:11;6.70;99.90
47765;DHT22;33529;49.242;8.670;2022-09-29T04:41:38;6.70;99.90
47765;DHT22;33529;49.242;8.670;2022-09-29T04:44:06;6.60;99.90
47765;DHT22;33529;49.242;8.670;2022-09-29T04:46:33;6.60;99.90
47765;DHT22;33529;49.242;8.670;2022-09-29T04:49:00;6.50;99.90
47765;DHT22;33529;49.242;8.670;2022-09-29T04:51:27;6.60;99.90
47765;DHT22;33529;49.242;8.670;2022-09-29T04:53:57;6.50;99.90
47765;DHT22;33529;49.242;8.670;2022-09-29T04:56:24;6.40;99.90
47765;DHT22;33529;49.242;8.670;2022-09-29T04:58:57;6.30;99.90
47765;DHT22;33529;49.242;8.670;2022-09-29T05:01:24;6.40;99.90
47765;DHT22;33529;49.242;8.670;2022-09-29T05:03:51;6.40;99.90
47765;DHT22;33529;49.242;8.670;2022-09-29T05:06:18;6.50;99.90
47765;DHT22;33529;49.242;8.670;2022-09-29T05:08:45;6.50;99.90
47765;DHT22;33529;49.242;8.670;2022-09-29T05:11:12;6.50;99.90
47765;DHT22;33529;49.242;8.670;2022-09-29T05:13:40;6.60;99.90
47765;DHT22;33529;49.242;8.670;2022-09-29T05:16:07;6.40;99.90
47765;DHT22;33529;49.242;8.670;2022-09-29T05:18:34;6.40;99.90
47765;DHT22;33529;49.242;8.670;2022-09-29T05:21:05;6.50;99.90
47765;DHT22;33529;49.242;8.670;2022-09-29T05:23:53;6.60;99.90
47765;DHT22;33529;49.242;8.670;2022-09-29T05:26:20;6.60;99.90
47765;DHT22;33529;49.242;8.670;2022-09-29T05:28:47;6.60;99.90
47765;DHT22;33529;49.242;8.670;2022-09-29T05:31:14;6.60;99.90
47765;DHT22;33529;49.242;8.670;2022-09-29T05:33:41;6.70;99.90
47765;DHT22;33529;49.242;8.670;2022-09-29T05:36:09;6.70;99.90
47765;DHT22;33529;49.242;8.670;2022-09-29T05:38:37;6.80;99.90
47765;DHT22;33529;49.242;8.670;2022-09-29T05:41:06;6.80;99.90
47765;DHT22;33529;49.242;8.670;2022-09-29T05:43:35;6.90;99.90
47765;DHT22;33529;49.242;8.670;2022-09-29T05:46:04;6.90;99.90
47765;DHT22;33529;49.242;8.670;2022-09-29T05:48:31;7.00;99.90
47765;DHT22;33529;49.242;8.670;2022-09-29T05:50:59;7.00;99.90
47765;DHT22;33529;49.242;8.670;2022-09-29T05:53:31;7.10;99.90
47765;DHT22;33529;49.242;8.670;2022-09-29T05:55:58;7.10;99.90
47765;DHT22;33529;49.242;8.670;2022-09-29T05:58:25;7.10;99.90
47765;DHT22;33529;49.242;8.670;2022-09-29T06:00:52;7.20;99.90
47765;DHT22;33529;49.242;8.670;2022-09-29T06:03:19;7.20;99.90
47765;DHT22;33529;49.242;8.670;2022-09-29T06:05:45;7.30;99.90
47765;DHT22;33529;49.242;8.670;2022-09-29T06:08:12;7.40;99.90
47765;DHT22;33529;49.242;8.670;2022-09-29T06:10:39;7.40;99.90
47765;DHT22;33529;49.242;8.670;2022-09-29T06:13:06;7.30;99.90
47765;DHT22;33529;49.242;8.670;2022-09-29T06:15:34;7.30;99.90
47765;DHT22;33529;49.242;8.670;2022-09-29T06:18:02;7.40;99.90
47765;DHT22;33529;49.242;8.670;2022-09-29T06:20:29;7.40;99.90
47765;DHT22;33529;49.242;8.670;2022-09-29T06:22:57;7.40;99.90
47765;DHT22;33529;49.242;8.670;2022-09-29T06:25:24;7.40;99.90
47765;DHT22;33529;49.242;8.670;2022-09-29T06:27:50;7.40;99.90
47765;DHT22;33529;49.242;8.670;2022-09-29T06:30:17;7.50;99.90
47765;DHT22;33529;49.242;8.670;2022-09-29T06:32:44;7.60;99.90
47765;DHT22;33529;49.242;8.670;2022-09-29T06:35:11;7.70;99.90
47765;DHT22;33529;49.242;8.670;2022-09-29T06:37:56;7.70;99.90
47765;DHT22;33529;49.242;8.670;2022-09-29T06:40:24;7.80;99.90
47765;DHT22;33529;49.242;8.670;2022-09-29T06:42:53;7.90;99.90
47765;DHT22;33529;49.242;8.670;2022-09-29T06:45:20;8.00;99.90
47765;DHT22;33529;49.242;8.670;2022-09-29T06:47:48;8.20;99.90
47765;DHT22;33529;49.242;8.670;2022-09-29T06:50:15;8.30;99.90
47765;DHT22;33529;49.242;8.670;2022-09-29T06:52:45;8.50;99.90
47765;DHT22;33529;49.242;8.670;2022-09-29T06:55:26;8.70;99.90
47765;DHT22;33529;49.242;8.670;2022-09-29T06:57:54;8.90;99.90
47765;DHT22;33529;49.242;8.670;2022-09-29T07:00:25;9.00;99.90
47765;DHT22;33529;49.242;8.670;2022-09-29T07:02:52;9.10;99.90
47765;DHT22;33529;49.242;8.670;2022-09-29T07:05:20;9.20;99.90
47765;DHT22;33529;49.242;8.670;2022-09-29T07:07:47;9.40;99.90
47765;DHT22;33529;49.242;8.670;2022-09-29T07:10:18;9.40;99.90
47765;DHT22;33529;49.242;8.670;2022-09-29T07:12:45;9.50;99.90
47765;DHT22;33529;49.242;8.670;2022-09-29T07:15:13;9.60;99.90
47765;DHT22;33529;49.242;8.670;2022-09-29T07:17:39;9.70;99.90
47765;DHT22;33529;49.242;8.670;2022-09-29T07:20:06;9.80;99.90
47765;DHT22;33529;49.242;8.670;2022-09-29T07:22:34;9.90;99.90
47765;DHT22;33529;49.242;8.670;2022-09-29T07:25:00;10.10;99.90
47765;DHT22;33529;49.242;8.670;2022-09-29T07:27:27;10.20;99.90
47765;DHT22;33529;49.242;8.670;2022-09-29T07:29:54;10.30;99.90
47765;DHT22;33529;49.242;8.670;2022-09-29T07:32:29;10.40;99.90
47765;DHT22;33529;49.242;8.670;2022-09-29T07:34:58;10.50;99.90
47765;DHT22;33529;49.242;8.670;2022-09-29T07:37:26;10.60;99.90
47765;DHT22;33529;49.242;8.670;2022-09-29T07:39:53;10.70;99.90
47765;DHT22;33529;49.242;8.670;2022-09-29T07:42:21;10.80;99.90
47765;DHT22;33529;49.242;8.670;2022-09-29T07:44:54;10.90;99.90
47765;DHT22;33529;49.242;8.670;2022-09-29T07:47:21;11.00;99.90
47765;DHT22;33529;49.242;8.670;2022-09-29T07:49:47;11.00;99.90
47765;DHT22;33529;49.242;8.670;2022-09-29T07:52:14;11.10;99.90
47765;DHT22;33529;49.242;8.670;2022-09-29T07:54:41;11.20;99.90
47765;DHT22;33529;49.242;8.670;2022-09-29T07:57:08;11.40;99.90
47765;DHT22;33529;49.242;8.670;2022-09-29T07:59:35;11.50;99.90
47765;DHT22;33529;49.242;8.670;2022-09-29T08:02:08;11.60;99.90
47765;DHT22;33529;49.242;8.670;2022-09-29T08:04:35;11.70;99.90
47765;DHT22;33529;49.242;8.670;2022-09-29T08:07:02;11.90;99.90
47765;DHT22;33529;49.242;8.670;2022-09-29T08:09:29;12.10;99.90
47765;DHT22;33529;49.242;8.670;2022-09-29T08:12:06;12.20;99.90
47765;DHT22;33529;49.242;8.670;2022-09-29T08:14:34;12.30;99.90
47765;DHT22;33529;49.242;8.670;2022-09-29T08:17:14;12.40;99.90
47765;DHT22;33529;49.242;8.670;2022-09-29T08:19:41;12.30;99.90
47765;DHT22;33529;49.242;8.670;2022-09-29T08:22:08;12.30;99.90
47765;DHT22;33529;49.242;8.670;2022-09-29T08:24:35;12.40;99.90
47765;DHT22;33529;49.242;8.670;2022-09-29T08:27:05;12.50;99.90
47765;DHT22;33529;49.242;8.670;2022-09-29T08:29:43;12.60;99.90
47765;DHT22;33529;49.242;8.670;2022-09-29T08:32:13;12.70;99.90
47765;DHT22;33529;49.242;8.670;2022-09-29T08:34:40;12.80;99.90
47765;DHT22;33529;49.242;8.670;2022-09-29T08:37:07;12.90;99.90
47765;DHT22;33529;49.242;8.670;2022-09-29T08:39:34;13.00;99.90
47765;DHT22;33529;49.242;8.670;2022-09-29T08:42:27;13.30;99.90
47765;DHT22;33529;49.242;8.670;2022-09-29T08:45:06;13.60;99.90
47765;DHT22;33529;49.242;8.670;2022-09-29T08:47:47;13.60;99.90
47765;DHT22;33529;49.242;8.670;2022-09-29T08:50:32;13.60;99.90
47765;DHT22;33529;49.242;8.670;2022-09-29T08:53:06;13.60;99.90
47765;DHT22;33529;49.242;8.670;2022-09-29T08:58:25;13.90;99.90
47765;DHT22;33529;49.242;8.670;2022-09-29T09:00:56;13.90;99.90
47765;DHT22;33529;49.242;8.670;2022-09-29T09:09:41;14.60;99.90
47765;DHT22;33529;49.242;8.670;2022-09-29T09:12:21;14.60;99.90
47765;DHT22;33529;49.242;8.670;2022-09-29T09:15:01;14.50;99.90
47765;DHT22;33529;49.242;8.670;2022-09-29T09:20:17;14.30;99.90
47765;DHT22;33529;49.242;8.670;2022-09-29T09:23:00;14.30;99.90
47765;DHT22;33529;49.242;8.670;2022-09-29T09:25:32;14.30;99.90
47765;DHT22;33529;49.242;8.670;2022-09-29T09:28:15;14.20;99.90
47765;DHT22;33529;49.242;8.670;2022-09-29T09:31:03;14.20;99.90
47765;DHT22;33529;49.242;8.670;2022-09-29T09:33:46;14.30;99.90
47765;DHT22;33529;49.242;8.670;2022-09-29T09:36:46;14.40;99.90
47765;DHT22;33529;49.242;8.670;2022-09-29T09:39:32;14.50;99.90
47765;DHT22;33529;49.242;8.670;2022-09-29T09:42:05;14.60;99.90
47765;DHT22;33529;49.242;8.670;2022-09-29T09:44:39;14.40;99.90
47765;DHT22;33529;49.242;8.670;2022-09-29T09:47:16;14.20;99.90
47765;DHT22;33529;49.242;8.670;2022-09-29T09:49:50;14.20;99.90
47765;DHT22;33529;49.242;8.670;2022-09-29T09:54:52;14.10;99.90
47765;DHT22;33529;49.242;8.670;2022-09-29T10:00:21;14.10;99.90
47765;DHT22;33529;49.242;8.670;2022-09-29T10:02:53;14.20;99.90
47765;DHT22;33529;49.242;8.670;2022-09-29T10:05:42;14.40;99.90
47765;DHT22;33529;49.242;8.670;2022-09-29T10:08:34;14.70;99.90
47765;DHT22;33529;49.242;8.670;2022-09-29T10:11:23;15.00;99.90
47765;DHT22;33529;49.242;8.670;2022-09-29T10:14:23;14.70;99.90
47765;DHT22;33529;49.242;8.670;2022-09-29T10:16:58;14.50;99.90
47765;DHT22;33529;49.242;8.670;2022-09-29T10:19:53;14.60;99.90
47765;DHT22;33529;49.242;8.670;2022-09-29T10:22:21;14.80;99.90
47765;DHT22;33529;49.242;8.670;2022-09-29T10:24:51;14.70;99.90
47765;DHT22;33529;49.242;8.670;2022-09-29T10:27:23;14.50;99.90
47765;DHT22;33529;49.242;8.670;2022-09-29T10:29:54;14.30;99.90
47765;DHT22;33529;49.242;8.670;2022-09-29T10:32:28;14.40;99.90
47765;DHT22;33529;49.242;8.670;2022-09-29T10:35:23;14.30;99.90
47765;DHT22;33529;49.242;8.670;2022-09-29T10:38:00;14.20;99.90
47765;DHT22;33529;49.242;8.670;2022-09-29T10:40:28;13.90;99.90
47765;DHT22;33529;49.242;8.670;2022-09-29T10:42:56;13.90;99.90
47765;DHT22;33529;49.242;8.670;2022-09-29T10:45:27;14.10;99.90
47765;DHT22;33529;49.242;8.670;2022-09-29T10:51:13;14.30;99.90
47765;DHT22;33529;49.242;8.670;2022-09-29T10:56:08;14.60;99.90
47765;DHT22;33529;49.242;8.670;2022-09-29T10:58:42;14.80;99.90
47765;DHT22;33529;49.242;8.670;2022-09-29T11:01:30;14.70;99.90
47765;DHT22;33529;49.242;8.670;2022-09-29T11:04:03;15.00;99.90
47765;DHT22;33529;49.242;8.670;2022-09-29T11:06:37;15.40;99.90
47765;DHT22;33529;49.242;8.670;2022-09-29T11:11:51;15.80;99.90
47765;DHT22;33529;49.242;8.670;2022-09-29T11:14:40;15.80;99.90
47765;DHT22;33529;49.242;8.670;2022-09-29T11:17:29;15.90;99.90
47765;DHT22;33529;49.242;8.670;2022-09-29T11:20:02;16.00;99.90
47765;DHT22;33529;49.242;8.670;2022-09-29T11:31:09;15.70;99.90
47765;DHT22;33529;49.242;8.670;2022-09-29T11:36:56;15.90;99.90
47765;DHT22;33529;49.242;8.670;2022-09-29T11:45:01;16.10;99.90
47765;DHT22;33529;49.242;8.670;2022-09-29T11:48:05;16.10;99.90
47765;DHT22;33529;49.242;8.670;2022-09-29T11:53:56;16.00;99.90
47765;DHT22;33529;49.242;8.670;2022-09-29T11:56:54;16.20;99.90
47765;DHT22;33529;49.242;8.670;2022-09-29T11:59:47;16.20;99.90
47765;DHT22;33529;49.242;8.670;2022-09-29T12:02:44;16.40;99.90
47765;DHT22;33529;49.242;8.670;2022-09-29T12:05:27;16.70;99.90
47765;DHT22;33529;49.242;8.670;2022-09-29T12:11:06;16.50;99.90
47765;DHT22;33529;49.242;8.670;2022-09-29T12:14:14;16.60;99.90
47765;DHT22;33529;49.242;8.670;2022-09-29T12:16:52;16.30;99.90
47765;DHT22;33529;49.242;8.670;2022-09-29T12:19:23;16.20;99.90
47765;DHT22;33529;49.242;8.670;2022-09-29T12:21:54;16.20;99.90
47765;DHT22;33529;49.242;8.670;2022-09-29T12:24:41;16.30;99.90
47765;DHT22;33529;49.242;8.670;2022-09-29T12:27:27;16.30;99.90
47765;DHT22;33529;49.242;8.670;2022-09-29T12:30:01;16.20;99.90
47765;DHT22;33529;49.242;8.670;2022-09-29T12:32:50;16.40;99.90
47765;DHT22;33529;49.242;8.670;2022-09-29T12:35:30;16.40;99.90
47765;DHT22;33529;49.242;8.670;2022-09-29T12:41:18;16.80;99.90
47765;DHT22;33529;49.242;8.670;2022-09-29T12:43:58;16.80;99.90
47765;DHT22;33529;49.242;8.670;2022-09-29T12:46:30;16.80;99.90
47765;DHT22;33529;49.242;8.670;2022-09-29T12:49:25;16.80;99.90
47765;DHT22;33529;49.242;8.670;2022-09-29T12:51:56;16.70;99.90
47765;DHT22;33529;49.242;8.670;2022-09-29T12:54:27;16.60;99.90
47765;DHT22;33529;49.242;8.670;2022-09-29T12:57:19;16.80;99.90
47765;DHT22;33529;49.242;8.670;2022-09-29T12:59:54;16.80;99.90
47765;DHT22;33529;49.242;8.670;2022-09-29T13:13:07;16.20;99.90
47765;DHT22;33529;49.242;8.670;2022-09-29T13:18:21;16.30;99.90
47765;DHT22;33529;49.242;8.670;2022-09-29T13:29:15;16.50;99.90
47765;DHT22;33529;49.242;8.670;2022-09-29T13:31:44;16.60;99.90
47765;DHT22;33529;49.242;8.670;2022-09-29T13:36:48;16.60;99.90
47765;DHT22;33529;49.242;8.670;2022-09-29T13:39:24;16.40;99.90
47765;DHT22;33529;49.242;8.670;2022-09-29T13:41:55;16.30;99.90
47765;DHT22;33529;49.242;8.670;2022-09-29T13:46:52;16.30;99.90
47765;DHT22;33529;49.242;8.670;2022-09-29T13:49:24;16.40;99.90
47765;DHT22;33529;49.242;8.670;2022-09-29T13:59:28;16.30;99.90
47765;DHT22;33529;49.242;8.670;2022-09-29T14:01:56;16.20;99.90
47765;DHT22;33529;49.242;8.670;2022-09-29T14:07:13;15.80;99.90
47765;DHT22;33529;49.242;8.670;2022-09-29T14:15:40;16.00;99.90
47765;DHT22;33529;49.242;8.670;2022-09-29T14:18:25;15.90;99.90
47765;DHT22;33529;49.242;8.670;2022-09-29T14:20:59;16.20;99.90
47765;DHT22;33529;49.242;8.670;2022-09-29T14:29:19;16.50;99.90
47765;DHT22;33529;49.242;8.670;2022-09-29T14:31:50;16.50;99.90
47765;DHT22;33529;49.242;8.670;2022-09-29T14:34:21;16.70;99.90
47765;DHT22;33529;49.242;8.670;2022-09-29T14:36:52;16.70;99.90
47765;DHT22;33529;49.242;8.670;2022-09-29T14:39:20;16.60;99.90
47765;DHT22;33529;49.242;8.670;2022-09-29T14:41:52;16.40;99.90
47765;DHT22;33529;49.242;8.670;2022-09-29T14:47:03;16.20;99.90
47765;DHT22;33529;49.242;8.670;2022-09-29T14:52:54;16.20;99.90
47765;DHT22;33529;49.242;8.670;2022-09-29T14:55:55;16.20;99.90
47765;DHT22;33529;49.242;8.670;2022-09-29T15:01:09;16.20;99.90
47765;DHT22;33529;49.242;8.670;2022-09-29T15:03:47;16.20;99.90
47765;DHT22;33529;49.242;8.670;2022-09-29T15:06:17;16.20;99.90
47765;DHT22;33529;49.242;8.670;2022-09-29T15:08:56;16.00;99.90
47765;DHT22;33529;49.242;8.670;2022-09-29T15:13:51;16.20;99.90
47765;DHT22;33529;49.242;8.670;2022-09-29T15:16:38;16.10;99.90
47765;DHT22;33529;49.242;8.670;2022-09-29T15:27:14;15.90;99.90
47765;DHT22;33529;49.242;8.670;2022-09-29T15:29:52;15.70;99.90
47765;DHT22;33529;49.242;8.670;2022-09-29T15:32:25;15.50;99.90
47765;DHT22;33529;49.242;8.670;2022-09-29T15:35:01;15.50;99.90
47765;DHT22;33529;49.242;8.670;2022-09-29T15:40:18;15.40;99.90
47765;DHT22;33529;49.242;8.670;2022-09-29T15:42:46;15.40;99.90
47765;DHT22;33529;49.242;8.670;2022-09-29T15:45:22;15.20;99.90
47765;DHT22;33529;49.242;8.670;2022-09-29T15:47:59;15.10;99.90
47765;DHT22;33529;49.242;8.670;2022-09-29T15:50:28;14.90;99.90
47765;DHT22;33529;49.242;8.670;2022-09-29T15:53:00;15.00;99.90
47765;DHT22;33529;49.242;8.670;2022-09-29T15:55:32;15.00;99.90
47765;DHT22;33529;49.242;8.670;2022-09-29T15:57:58;15.00;99.90
47765;DHT22;33529;49.242;8.670;2022-09-29T16:03:17;14.90;99.90
47765;DHT22;33529;49.242;8.670;2022-09-29T16:06:28;14.90;99.90
47765;DHT22;33529;49.242;8.670;2022-09-29T16:09:00;14.80;99.90
47765;DHT22;33529;49.242;8.670;2022-09-29T16:11:29;14.80;99.90
47765;DHT22;33529;49.242;8.670;2022-09-29T16:14:09;14.70;99.90
47765;DHT22;33529;49.242;8.670;2022-09-29T16:16:44;14.60;99.90
47765;DHT22;33529;49.242;8.670;2022-09-29T16:19:26;14.50;99.90
47765;DHT22;33529;49.242;8.670;2022-09-29T16:22:02;14.40;99.90
47765;DHT22;33529;49.242;8.670;2022-09-29T16:24:34;14.40;99.90
47765;DHT22;33529;49.242;8.670;2022-09-29T16:27:01;14.40;99.90
47765;DHT22;33529;49.242;8.670;2022-09-29T16:29:30;14.30;99.90
47765;DHT22;33529;49.242;8.670;2022-09-29T16:31:58;14.30;99.90
47765;DHT22;33529;49.242;8.670;2022-09-29T16:34:29;14.20;99.90
47765;DHT22;33529;49.242;8.670;2022-09-29T16:37:01;14.20;99.90
47765;DHT22;33529;49.242;8.670;2022-09-29T16:39:40;14.00;99.90
47765;DHT22;33529;49.242;8.670;2022-09-29T16:42:18;13.90;99.90
47765;DHT22;33529;49.242;8.670;2022-09-29T16:44:46;13.90;99.90
47765;DHT22;33529;49.242;8.670;2022-09-29T16:49:50;13.80;99.90
47765;DHT22;33529;49.242;8.670;2022-09-29T16:52:24;13.70;99.90
47765;DHT22;33529;49.242;8.670;2022-09-29T16:55:05;13.70;99.90
47765;DHT22;33529;49.242;8.670;2022-09-29T16:57:33;13.70;99.90
47765;DHT22;33529;49.242;8.670;2022-09-29T17:00:08;13.60;99.90
47765;DHT22;33529;49.242;8.670;2022-09-29T17:02:36;13.50;99.90
47765;DHT22;33529;49.242;8.670;2022-09-29T17:05:04;13.50;99.90
47765;DHT22;33529;49.242;8.670;2022-09-29T17:07:38;13.40;99.90
47765;DHT22;33529;49.242;8.670;2022-09-29T17:10:14;13.30;99.90
47765;DHT22;33529;49.242;8.670;2022-09-29T17:12:42;13.30;99.90
47765;DHT22;33529;49.242;8.670;2022-09-29T17:15:13;13.20;99.90
47765;DHT22;33529;49.242;8.670;2022-09-29T17:17:40;13.10;99.90
47765;DHT22;33529;49.242;8.670;2022-09-29T17:20:14;13.10;99.90
47765;DHT22;33529;49.242;8.670;2022-09-29T17:22:42;13.00;99.90
47765;DHT22;33529;49.242;8.670;2022-09-29T17:25:12;13.00;99.90
47765;DHT22;33529;49.242;8.670;2022-09-29T17:27:42;12.90;99.90
47765;DHT22;33529;49.242;8.670;2022-09-29T17:30:28;12.90;99.90
47765;DHT22;33529;49.242;8.670;2022-09-29T17:32:56;12.90;99.90
47765;DHT22;33529;49.242;8.670;2022-09-29T17:35:28;12.70;99.90
47765;DHT22;33529;49.242;8.670;2022-09-29T17:37:55;12.50;99.90
47765;DHT22;33529;49.242;8.670;2022-09-29T17:40:33;12.50;99.90
47765;DHT22;33529;49.242;8.670;2022-09-29T17:43:00;12.50;99.90
47765;DHT22;33529;49.242;8.670;2022-09-29T17:45:29;12.40;99.90
47765;DHT22;33529;49.242;8.670;2022-09-29T17:47:57;12.40;99.90
47765;DHT22;33529;49.242;8.670;2022-09-29T17:50:33;12.40;99.90
47765;DHT22;33529;49.242;8.670;2022-09-29T17:53:06;12.30;99.90
47765;DHT22;33529;49.242;8.670;2022-09-29T17:55:33;12.20;99.90
47765;DHT22;33529;49.242;8.670;2022-09-29T17:58:00;12.20;99.90
47765;DHT22;33529;49.242;8.670;2022-09-29T18:00:34;12.20;99.90
47765;DHT22;33529;49.242;8.670;2022-09-29T18:03:08;12.10;99.90
47765;DHT22;33529;49.242;8.670;2022-09-29T18:05:38;12.00;99.90
47765;DHT22;33529;49.242;8.670;2022-09-29T18:08:09;12.00;99.90
47765;DHT22;33529;49.242;8.670;2022-09-29T18:10:52;11.90;99.90
47765;DHT22;33529;49.242;8.670;2022-09-29T18:13:23;11.80;99.90
47765;DHT22;33529;49.242;8.670;2022-09-29T18:15:50;11.80;99.90
47765;DHT22;33529;49.242;8.670;2022-09-29T18:18:19;11.70;99.90
47765;DHT22;33529;49.242;8.670;2022-09-29T18:20:47;11.60;99.90
47765;DHT22;33529;49.242;8.670;2022-09-29T18:23:16;11.70;99.90
47765;DHT22;33529;49.242;8.670;2022-09-29T18:25:44;11.70;99.90
47765;DHT22;33529;49.242;8.670;2022-09-29T18:28:14;11.70;99.90
47765;DHT22;33529;49.242;8.670;2022-09-29T18:30:43;11.70;99.90
47765;DHT22;33529;49.242;8.670;2022-09-29T18:33:14;11.70;99.90
47765;DHT22;33529;49.242;8.670;2022-09-29T18:35:43;11.60;99.90
47765;DHT22;33529;49.242;8.670;2022-09-29T18:38:10;11.60;99.90
47765;DHT22;33529;49.242;8.670;2022-09-29T18:40:38;11.60;99.90
47765;DHT22;33529;49.242;8.670;2022-09-29T18:43:05;11.50;99.90
47765;DHT22;33529;49.242;8.670;2022-09-29T18:45:36;11.60;99.90
47765;DHT22;33529;49.242;8.670;2022-09-29T18:48:05;11.50;99.90
47765;DHT22;33529;49.242;8.670;2022-09-29T18:50:40;11.50;99.90